Time;durP1;ratioP1;P1;durP2;ratioP2;P2;SDS_P1;SDS_P2;PMS_P1;PMS_P2;Temp;Humidity;BMP_temperature;BMP_pressure;BME280_temperature;BME280_humidity;BME280_pressure;Samples;Min_cycle;Max_cycle;Signal;HPM_P1;HPM_P2
2023/04/23 00:00:14;;;;;;;11.60;9.83;;;14.00;99.90;;;;;;5049345;28;20698;-79
2023/04/23 00:02:43;;;;;;;11.90;10.80;;;14.00;99.90;;;;;;5048714;28;20610;-79
2023/04/23 00:05:11;;;;;;;11.77;10.68;;;14.00;99.90;;;;;;5053501;28;20271;-78
2023/04/23 00:07:37;;;;;;;11.05;9.80;;;14.00;99.90;;;;;;5051641;28;20184;-77
2023/04/23 00:10:04;;;;;;;11.80;8.70;;;13.90;99.90;;;;;;5050292;28;20173;-79
2023/04/23 00:12:31;;;;;;;11.27;9.40;;;14.00;99.90;;;;;;5050108;28;20629;-78
2023/04/23 00:15:00;;;;;;;9.88;8.90;;;13.90;99.90;;;;;;5048923;28;20629;-78
2023/04/23 00:17:26;;;;;;;11.35;10.30;;;14.00;99.90;;;;;;5032729;28;20256;-79
2023/04/23 00:19:52;;;;;;;11.90;10.70;;;13.90;99.90;;;;;;5049094;28;20276;-78
2023/04/23 00:22:19;;;;;;;9.97;8.83;;;13.90;99.90;;;;;;5033435;28;20190;-78
2023/04/23 00:24:45;;;;;;;10.85;9.75;;;13.90;99.90;;;;;;5012436;28;20170;-78
2023/04/23 00:27:11;;;;;;;9.90;8.90;;;13.90;99.90;;;;;;5028890;28;20170;-78
2023/04/23 00:29:37;;;;;;;11.40;10.30;;;13.90;99.90;;;;;;5030234;28;20596;-78
2023/04/23 00:32:03;;;;;;;10.73;9.60;;;13.90;99.90;;;;;;5029081;28;20225;-78
2023/04/23 00:34:29;;;;;;;11.73;10.50;;;13.90;99.90;;;;;;5028690;28;20174;-79
2023/04/23 00:36:55;;;;;;;11.38;10.23;;;13.90;99.90;;;;;;5030114;28;20604;-78
2023/04/23 00:39:21;;;;;;;10.97;9.77;;;13.90;99.90;;;;;;5012311;28;20166;-78
2023/04/23 00:41:47;;;;;;;10.97;9.87;;;13.90;99.90;;;;;;5012422;28;20549;-78
2023/04/23 00:44:13;;;;;;;11.13;10.05;;;13.90;99.90;;;;;;5028977;28;20584;-78
2023/04/23 00:46:39;;;;;;;12.60;10.83;;;13.90;99.90;;;;;;5031308;28;20217;-78
2023/04/23 00:49:05;;;;;;;11.30;10.20;;;13.90;99.90;;;;;;5033998;28;20571;-78
2023/04/23 00:51:31;;;;;;;12.45;11.25;;;13.90;99.90;;;;;;5040633;28;20185;-78
2023/04/23 00:53:57;;;;;;;12.40;11.20;;;13.80;99.90;;;;;;5045435;28;20645;-78
2023/04/23 00:56:24;;;;;;;13.17;11.60;;;13.80;99.90;;;;;;5051825;28;20618;-78
2023/04/23 00:58:54;;;;;;;10.73;9.65;;;13.80;99.90;;;;;;5035871;28;20175;-78
2023/04/23 01:01:20;;;;;;;13.07;11.82;;;13.80;99.90;;;;;;5052971;28;20579;-78
2023/04/23 01:03:51;;;;;;;11.80;10.70;;;13.70;99.90;;;;;;5032759;28;20665;-78
2023/04/23 01:06:17;;;;;;;11.68;10.57;;;13.80;99.90;;;;;;5032045;28;20582;-78
2023/04/23 01:08:45;;;;;;;12.55;11.30;;;13.70;99.90;;;;;;5015634;28;20188;-78
2023/04/23 01:11:16;;;;;;;12.18;11.02;;;13.70;99.90;;;;;;5027433;28;20182;-78
2023/04/23 01:13:42;;;;;;;11.85;10.65;;;13.70;99.90;;;;;;5028511;28;20608;-78
2023/04/23 01:16:09;;;;;;;11.45;10.25;;;13.70;99.90;;;;;;5035912;28;20193;-78
2023/04/23 01:18:36;;;;;;;13.20;11.23;;;13.60;99.90;;;;;;5015345;28;20174;-78
2023/04/23 01:21:03;;;;;;;10.40;9.37;;;13.60;99.90;;;;;;5015570;28;20166;-78
2023/04/23 01:23:30;;;;;;;11.50;10.35;;;13.60;99.90;;;;;;5031893;28;20584;-78
2023/04/23 01:25:56;;;;;;;13.75;11.23;;;13.60;99.90;;;;;;5031847;28;20240;-78
2023/04/23 01:28:22;;;;;;;11.70;9.82;;;13.50;99.90;;;;;;5031787;28;20173;-77
2023/04/23 01:30:49;;;;;;;11.80;10.60;;;13.50;99.90;;;;;;5033067;28;20509;-78
2023/04/23 01:33:16;;;;;;;12.88;11.18;;;13.50;99.90;;;;;;5015447;28;20232;-78
2023/04/23 01:35:42;;;;;;;10.40;9.45;;;13.50;99.90;;;;;;5031285;28;20194;-78
2023/04/23 01:38:12;;;;;;;12.20;10.95;;;13.40;99.90;;;;;;5015625;28;20170;-78
2023/04/23 01:40:38;;;;;;;10.82;9.73;;;13.40;99.90;;;;;;5032758;28;20162;-78
2023/04/23 01:43:06;;;;;;;12.50;11.30;;;13.40;99.90;;;;;;5031985;28;20540;-78
2023/04/23 01:45:32;;;;;;;12.52;11.30;;;13.30;99.90;;;;;;5014386;28;20214;-78
2023/04/23 01:47:59;;;;;;;12.60;11.40;;;13.30;99.90;;;;;;5032826;28;20182;-77
2023/04/23 01:50:26;;;;;;;12.75;11.45;;;13.30;99.90;;;;;;5014835;28;20178;-77
2023/04/23 01:52:52;;;;;;;15.05;12.15;;;13.20;99.90;;;;;;5032995;28;20208;-77
2023/04/23 01:55:19;;;;;;;13.60;12.27;;;13.20;99.90;;;;;;5031533;28;20205;-77
2023/04/23 01:57:46;;;;;;;14.65;12.95;;;13.20;99.90;;;;;;5014350;28;20172;-77
2023/04/23 02:00:13;;;;;;;13.52;12.27;;;13.20;99.90;;;;;;5031603;28;20173;-77
2023/04/23 02:02:40;;;;;;;13.82;12.45;;;13.20;99.90;;;;;;4998573;28;20184;-79
2023/04/23 02:05:15;;;;;;;14.95;13.45;;;13.20;99.90;;;;;;5015109;28;20194;-77
2023/04/23 02:07:42;;;;;;;13.63;12.23;;;13.20;99.90;;;;;;5014251;28;20177;-77
2023/04/23 02:10:09;;;;;;;12.82;11.52;;;13.20;99.90;;;;;;5032645;28;20260;-77
2023/04/23 02:12:36;;;;;;;16.42;14.75;;;13.20;99.90;;;;;;5014141;28;20260;-76
2023/04/23 02:15:02;;;;;;;16.10;13.85;;;13.20;99.90;;;;;;5031053;28;20529;-76
2023/04/23 02:17:28;;;;;;;12.63;11.32;;;13.20;99.90;;;;;;5030429;28;20630;-76
2023/04/23 02:19:54;;;;;;;12.37;11.27;;;13.20;99.90;;;;;;5014774;28;20170;-77
2023/04/23 02:22:23;;;;;;;15.40;13.80;;;13.20;99.90;;;;;;5041053;28;20276;-77
2023/04/23 02:24:50;;;;;;;15.02;13.15;;;13.20;99.90;;;;;;5015589;28;20200;-77
2023/04/23 02:27:16;;;;;;;12.95;11.65;;;13.30;99.90;;;;;;5030902;28;20173;-77
2023/04/23 02:29:41;;;;;;;13.77;12.27;;;13.20;99.90;;;;;;5030672;28;20690;-77
2023/04/23 02:32:07;;;;;;;17.50;15.70;;;13.20;99.90;;;;;;5014168;28;21033;-77
2023/04/23 02:34:33;;;;;;;15.95;14.32;;;13.20;99.90;;;;;;5031840;28;20166;-77
2023/04/23 02:36:59;;;;;;;18.97;15.63;;;13.20;99.90;;;;;;5030636;28;20194;-77
2023/04/23 02:39:25;;;;;;;21.40;18.73;;;13.10;99.90;;;;;;5013984;28;20165;-78
2023/04/23 02:41:50;;;;;;;19.25;16.88;;;13.00;99.90;;;;;;5014096;28;20220;-73
2023/04/23 02:44:16;;;;;;;19.80;17.70;;;13.00;99.90;;;;;;5030585;28;20205;-73
2023/04/23 02:46:42;;;;;;;15.13;13.63;;;13.00;99.90;;;;;;5013685;28;20224;-74
2023/04/23 02:49:07;;;;;;;18.67;15.70;;;13.00;99.90;;;;;;5031631;28;20181;-73
2023/04/23 02:51:33;;;;;;;19.00;17.00;;;12.90;99.90;;;;;;5013588;28;20314;-73
2023/04/23 02:53:59;;;;;;;22.87;19.10;;;12.90;99.90;;;;;;5030774;28;20200;-73
2023/04/23 02:56:26;;;;;;;18.13;16.30;;;12.80;99.90;;;;;;5029598;28;20218;-73
2023/04/23 02:58:52;;;;;;;21.43;18.73;;;12.80;99.90;;;;;;5016039;28;20173;-73
2023/04/23 03:01:18;;;;;;;19.07;17.07;;;12.80;99.90;;;;;;5024840;28;20598;-73
2023/04/23 03:03:44;;;;;;;20.00;18.00;;;12.80;99.90;;;;;;5033830;28;20834;-73
2023/04/23 03:06:09;;;;;;;20.20;17.90;;;12.70;99.90;;;;;;5049863;28;20626;-73
2023/04/23 03:08:35;;;;;;;19.97;17.87;;;12.70;99.90;;;;;;5032688;28;20561;-73
2023/04/23 03:11:01;;;;;;;22.20;19.53;;;12.70;99.90;;;;;;5033488;28;20176;-73
2023/04/23 03:13:27;;;;;;;20.47;18.43;;;12.70;99.90;;;;;;5049478;28;20201;-73
2023/04/23 03:15:53;;;;;;;17.77;15.30;;;12.70;99.90;;;;;;5049867;28;20615;-73
2023/04/23 03:18:19;;;;;;;18.67;16.70;;;12.70;99.90;;;;;;5042467;28;20280;-73
2023/04/23 03:20:49;;;;;;;21.63;19.42;;;12.70;99.90;;;;;;5039129;28;20707;-73
2023/04/23 03:23:16;;;;;;;20.73;18.67;;;12.60;99.90;;;;;;5029689;28;20185;-73
2023/04/23 03:25:43;;;;;;;21.45;17.52;;;12.60;99.90;;;;;;5013147;28;20535;-73
2023/04/23 03:28:09;;;;;;;19.10;16.63;;;12.60;99.90;;;;;;5031026;28;20188;-73
2023/04/23 03:30:35;;;;;;;19.57;17.60;;;12.60;99.90;;;;;;5030940;28;20257;-73
2023/04/23 03:33:02;;;;;;;21.97;19.67;;;12.60;99.90;;;;;;5049293;28;20207;-73
2023/04/23 03:35:28;;;;;;;21.67;18.65;;;12.60;99.90;;;;;;5025453;28;20706;-72
2023/04/23 03:37:56;;;;;;;20.38;18.17;;;12.60;99.90;;;;;;5023277;28;20182;-73
2023/04/23 03:40:23;;;;;;;22.13;19.77;;;12.60;99.90;;;;;;5039295;28;20220;-73
2023/04/23 03:42:52;;;;;;;17.90;16.05;;;12.50;99.90;;;;;;5029112;28;20173;-73
2023/04/23 03:45:25;;;;;;;21.98;19.55;;;12.50;99.90;;;;;;5020562;28;20215;-73
2023/04/23 03:47:51;;;;;;;21.30;18.88;;;12.50;99.90;;;;;;5037784;28;20331;-73
2023/04/23 03:50:17;;;;;;;25.60;22.52;;;12.50;99.90;;;;;;5012790;28;20170;-73
2023/04/23 03:52:45;;;;;;;21.35;19.23;;;12.50;99.90;;;;;;5029475;28;20206;-74
2023/04/23 03:55:20;;;;;;;22.17;19.75;;;12.60;99.90;;;;;;5029540;28;20326;-73
2023/04/23 03:57:46;;;;;;;23.40;20.95;;;12.60;99.90;;;;;;5029187;28;20255;-73
2023/04/23 04:00:21;;;;;;;28.42;25.33;;;12.60;99.90;;;;;;5029654;28;20610;-73
2023/04/23 04:02:47;;;;;;;21.20;18.97;;;12.60;99.90;;;;;;5030312;28;20263;-73
2023/04/23 04:05:12;;;;;;;23.83;21.30;;;12.60;99.90;;;;;;5030852;28;20190;-74
2023/04/23 04:07:39;;;;;;;21.80;19.10;;;12.70;99.90;;;;;;5029028;28;20236;-73
2023/04/23 04:10:06;;;;;;;23.83;21.25;;;12.70;99.90;;;;;;5029457;28;20604;-74
2023/04/23 04:12:31;;;;;;;24.83;22.23;;;12.80;99.90;;;;;;5028983;28;20209;-73
2023/04/23 04:14:58;;;;;;;22.10;19.80;;;12.80;99.90;;;;;;5037191;28;20539;-74
2023/04/23 04:17:24;;;;;;;19.43;17.40;;;12.80;99.90;;;;;;5044962;28;20204;-73
2023/04/23 04:19:50;;;;;;;17.70;15.80;;;12.90;99.90;;;;;;5049153;28;21018;-74
2023/04/23 04:22:16;;;;;;;21.63;18.58;;;12.90;99.90;;;;;;5038554;28;20609;-73
2023/04/23 04:24:42;;;;;;;18.13;16.33;;;12.90;99.90;;;;;;5032668;28;20181;-73
2023/04/23 04:27:08;;;;;;;20.25;18.08;;;13.00;99.90;;;;;;5033243;28;20623;-73
2023/04/23 04:29:34;;;;;;;21.30;19.10;;;13.00;99.90;;;;;;5032964;28;20174;-73
2023/04/23 04:32:01;;;;;;;18.10;16.20;;;13.00;99.90;;;;;;5032875;28;20711;-73
2023/04/23 04:34:27;;;;;;;18.70;16.70;;;13.10;99.90;;;;;;5032764;28;20940;-73
2023/04/23 04:36:53;;;;;;;16.88;15.02;;;13.10;99.90;;;;;;5034116;28;20236;-73
2023/04/23 04:39:19;;;;;;;21.10;19.10;;;13.10;99.90;;;;;;5033985;28;20174;-73
2023/04/23 04:41:46;;;;;;;17.42;15.73;;;13.10;99.90;;;;;;5034143;28;21055;-73
2023/04/23 04:44:13;;;;;;;17.70;15.80;;;13.10;99.90;;;;;;5033007;28;20181;-73
2023/04/23 04:46:39;;;;;;;17.85;15.95;;;13.20;99.90;;;;;;5033472;28;20194;-73
2023/04/23 04:49:09;;;;;;;16.05;14.55;;;13.20;99.90;;;;;;5032910;28;20170;-73
2023/04/23 04:51:40;;;;;;;17.05;15.38;;;13.20;99.90;;;;;;5032320;28;20201;-73
2023/04/23 04:54:06;;;;;;;16.20;14.60;;;13.20;99.90;;;;;;5034015;28;20504;-73
2023/04/23 04:56:35;;;;;;;18.27;16.38;;;13.30;99.90;;;;;;5033252;28;20189;-74
2023/04/23 04:59:02;;;;;;;18.17;16.38;;;13.30;99.90;;;;;;5034058;28;20256;-73
2023/04/23 05:01:28;;;;;;;15.60;13.93;;;13.30;99.90;;;;;;5031860;28;20181;-73
2023/04/23 05:03:55;;;;;;;16.93;15.27;;;13.40;99.90;;;;;;5032622;28;20170;-73
2023/04/23 05:06:21;;;;;;;16.10;14.57;;;13.40;99.90;;;;;;5031743;28;20201;-73
2023/04/23 05:08:49;;;;;;;14.70;13.17;;;13.40;99.90;;;;;;5033700;28;20176;-74
2023/04/23 05:11:17;;;;;;;12.57;11.38;;;13.50;99.90;;;;;;5041551;28;20697;-73
2023/04/23 05:13:43;;;;;;;14.38;12.98;;;13.50;99.90;;;;;;5050038;28;21018;-73
2023/04/23 05:16:10;;;;;;;15.48;13.90;;;13.60;99.90;;;;;;5051707;28;20193;-73
2023/04/23 05:18:37;;;;;;;13.90;12.57;;;13.60;99.90;;;;;;5053200;28;20173;-73
2023/04/23 05:21:02;;;;;;;14.20;12.70;;;13.60;99.90;;;;;;5049167;28;20177;-73
2023/04/23 05:23:28;;;;;;;15.03;13.40;;;13.70;99.90;;;;;;5032751;28;20177;-73
2023/04/23 05:25:55;;;;;;;12.40;11.20;;;13.70;99.90;;;;;;5033125;28;21203;-73
2023/04/23 05:28:22;;;;;;;12.73;11.52;;;13.70;99.90;;;;;;5031581;28;20181;-73
2023/04/23 05:30:48;;;;;;;13.57;12.20;;;13.70;99.90;;;;;;5032776;28;20638;-73
2023/04/23 05:33:14;;;;;;;11.60;10.40;;;13.80;99.90;;;;;;5032720;28;20202;-73
2023/04/23 05:35:40;;;;;;;14.55;13.15;;;13.80;99.90;;;;;;5032698;28;20587;-73
2023/04/23 05:38:06;;;;;;;14.80;13.33;;;13.90;99.90;;;;;;5031757;28;20169;-73
2023/04/23 05:40:32;;;;;;;10.43;9.43;;;13.90;99.90;;;;;;5032743;28;20564;-73
2023/04/23 05:42:58;;;;;;;10.93;9.83;;;14.00;99.90;;;;;;5032937;28;20673;-74
2023/04/23 05:45:24;;;;;;;11.80;10.60;;;14.00;99.90;;;;;;5032157;28;20216;-73
2023/04/23 05:47:50;;;;;;;12.03;10.83;;;14.00;99.90;;;;;;5032573;28;20576;-73
2023/04/23 05:50:16;;;;;;;11.77;10.60;;;14.10;99.90;;;;;;5031339;28;20588;-73
2023/04/23 05:52:42;;;;;;;10.57;9.27;;;14.10;99.90;;;;;;5015581;28;20198;-73
2023/04/23 05:55:08;;;;;;;11.20;10.10;;;14.20;99.90;;;;;;5031040;28;20607;-73
2023/04/23 05:57:36;;;;;;;11.50;10.00;;;14.20;99.90;;;;;;5032683;28;20581;-73
2023/04/23 06:00:04;;;;;;;12.03;10.87;;;14.30;99.90;;;;;;5031646;28;20585;-73
2023/04/23 06:02:38;;;;;;;11.40;10.37;;;14.30;99.90;;;;;;5031077;28;20580;-73
2023/04/23 06:05:05;;;;;;;9.63;8.83;;;14.30;99.90;;;;;;5031320;28;20616;-73
2023/04/23 06:07:32;;;;;;;11.00;9.90;;;14.40;99.90;;;;;;5038518;28;20612;-73
2023/04/23 06:09:58;;;;;;;9.00;8.20;;;14.40;99.90;;;;;;5050443;28;20600;-73
2023/04/23 06:12:24;;;;;;;9.57;8.20;;;14.50;99.90;;;;;;5050459;28;21015;-73
2023/04/23 06:14:51;;;;;;;9.60;8.70;;;14.60;99.90;;;;;;5050833;28;20622;-73
2023/04/23 06:17:16;;;;;;;11.20;8.90;;;14.60;99.90;;;;;;5050413;28;20944;-73
2023/04/23 06:19:42;;;;;;;9.37;8.50;;;14.70;99.90;;;;;;5034181;28;20572;-73
2023/04/23 06:22:08;;;;;;;7.73;7.03;;;14.70;99.90;;;;;;5038222;28;20799;-75
2023/04/23 06:24:34;;;;;;;7.83;7.13;;;14.80;99.90;;;;;;5030808;28;20239;-74
2023/04/23 06:27:01;;;;;;;8.47;7.63;;;14.80;99.90;;;;;;5038278;28;20225;-72
2023/04/23 06:29:30;;;;;;;8.47;7.53;;;14.90;99.90;;;;;;5045760;28;20921;-72
2023/04/23 06:32:03;;;;;;;6.00;5.50;;;15.00;99.90;;;;;;5050528;28;20666;-72
2023/04/23 06:34:29;;;;;;;7.40;6.70;;;15.10;99.90;;;;;;5033573;28;21035;-72
2023/04/23 06:36:55;;;;;;;6.30;5.70;;;15.20;99.90;;;;;;5051448;28;20663;-73
2023/04/23 06:39:21;;;;;;;8.30;6.67;;;15.20;99.90;;;;;;5051571;28;20626;-73
2023/04/23 06:41:47;;;;;;;9.63;7.00;;;15.30;99.90;;;;;;5051005;28;20185;-73
2023/04/23 06:44:20;;;;;;;5.30;4.80;;;15.50;99.90;;;;;;5050048;28;20530;-77
2023/04/23 06:46:50;;;;;;;5.50;4.90;;;15.70;99.90;;;;;;5036666;28;20631;-77
2023/04/23 06:49:17;;;;;;;4.90;4.40;;;15.80;99.90;;;;;;5042817;28;20580;-77
2023/04/23 06:51:43;;;;;;;5.20;4.70;;;15.90;99.90;;;;;;5050390;28;20592;-77
2023/04/23 06:54:08;;;;;;;7.77;5.17;;;16.00;99.90;;;;;;5050571;28;20571;-76
2023/04/23 06:56:34;;;;;;;6.23;4.53;;;16.10;99.90;;;;;;5051179;28;20215;-77
2023/04/23 06:59:00;;;;;;;5.33;4.70;;;16.10;99.90;;;;;;5050577;28;20343;-76
2023/04/23 07:01:26;;;;;;;4.40;4.00;;;16.20;99.90;;;;;;5049324;28;20263;-77
2023/04/23 07:03:53;;;;;;;6.10;4.47;;;16.30;99.90;;;;;;5041098;28;20718;-77
2023/04/23 07:06:19;;;;;;;4.40;4.00;;;16.50;99.90;;;;;;5044715;28;20223;-77
2023/04/23 07:08:45;;;;;;;3.90;3.50;;;16.90;99.90;;;;;;5050124;28;20588;-77
2023/04/23 07:11:11;;;;;;;5.07;4.57;;;17.40;99.90;;;;;;5042108;28;20947;-77
2023/04/23 07:13:39;;;;;;;4.73;4.33;;;17.80;99.90;;;;;;5031333;28;20201;-77
2023/04/23 07:16:05;;;;;;;4.20;3.73;;;18.20;99.90;;;;;;5030695;28;20707;-77
2023/04/23 07:18:31;;;;;;;3.67;3.27;;;18.40;99.90;;;;;;5030224;28;20690;-77
2023/04/23 07:20:57;;;;;;;3.53;3.23;;;18.60;99.90;;;;;;5029757;28;21342;-77
2023/04/23 07:23:23;;;;;;;3.37;3.07;;;19.00;99.90;;;;;;5030787;28;20181;-76
2023/04/23 07:25:49;;;;;;;5.00;3.27;;;19.40;99.90;;;;;;5029734;28;20601;-77
2023/04/23 07:28:14;;;;;;;2.60;2.03;;;19.80;99.90;;;;;;5024080;28;20627;-77
2023/04/23 07:30:40;;;;;;;4.10;2.87;;;20.10;99.90;;;;;;5027894;28;20188;-77
2023/04/23 07:33:06;;;;;;;4.77;2.17;;;20.50;99.90;;;;;;5030645;28;20287;-77
2023/04/23 07:35:32;;;;;;;4.80;2.50;;;21.20;99.90;;;;;;5031131;28;20185;-77
2023/04/23 07:37:57;;;;;;;3.40;2.00;;;21.60;99.90;;;;;;5030774;28;20174;-77
2023/04/23 07:40:24;;;;;;;3.03;2.03;;;21.80;99.90;;;;;;5031188;28;20193;-77
2023/04/23 07:42:50;;;;;;;3.77;2.20;;;21.90;99.90;;;;;;5030531;28;20577;-77
2023/04/23 07:45:17;;;;;;;2.83;1.97;;;21.80;99.90;;;;;;5029611;28;20739;-76
2023/04/23 07:47:44;;;;;;;2.40;2.00;;;21.80;99.90;;;;;;5030740;28;20633;-77
2023/04/23 07:50:10;;;;;;;2.63;1.87;;;21.80;99.90;;;;;;5030567;28;21015;-76
2023/04/23 07:52:36;;;;;;;2.97;2.33;;;21.80;99.90;;;;;;5030996;28;20623;-77
2023/04/23 07:55:02;;;;;;;2.00;1.60;;;22.10;99.90;;;;;;5034293;28;20453;-76
2023/04/23 07:57:27;;;;;;;3.70;2.23;;;22.40;99.90;;;;;;5037357;28;20170;-76
2023/04/23 07:59:53;;;;;;;2.80;2.20;;;22.80;99.90;;;;;;5043898;28;20957;-76
2023/04/23 08:02:22;;;;;;;2.53;1.77;;;23.40;99.90;;;;;;5049884;28;20180;-76
2023/04/23 08:04:48;;;;;;;3.23;1.43;;;24.20;99.90;;;;;;5055981;28;20568;-76
2023/04/23 08:07:14;;;;;;;2.00;1.40;;;24.80;99.90;;;;;;5056596;28;20657;-77
2023/04/23 08:09:41;;;;;;;2.67;1.50;;;25.00;99.90;;;;;;5058238;28;20176;-76
2023/04/23 08:12:06;;;;;;;4.83;2.13;;;24.80;99.90;;;;;;5043311;28;20263;-76
2023/04/23 08:14:32;;;;;;;2.70;1.33;;;24.70;99.90;;;;;;5040162;28;20584;-77
2023/04/23 08:17:01;;;;;;;2.13;1.47;;;24.60;99.90;;;;;;5035545;28;20193;-77
2023/04/23 08:19:30;;;;;;;3.27;1.57;;;24.40;99.90;;;;;;5035690;28;21205;-77
2023/04/23 08:21:56;;;;;;;3.13;1.50;;;24.20;99.90;;;;;;5035396;28;20196;-77
2023/04/23 08:24:22;;;;;;;3.10;1.20;;;24.00;99.90;;;;;;5036085;28;20587;-77
2023/04/23 08:26:48;;;;;;;1.93;1.30;;;23.70;99.90;;;;;;5035479;28;20185;-77
2023/04/23 08:29:14;;;;;;;1.93;0.93;;;23.50;99.90;;;;;;5037294;28;20621;-77
2023/04/23 08:31:40;;;;;;;2.07;1.00;;;23.20;99.90;;;;;;5037045;28;20165;-77
2023/04/23 08:34:06;;;;;;;2.00;1.13;;;23.00;99.90;;;;;;5035563;28;20212;-77
2023/04/23 08:36:32;;;;;;;3.27;1.50;;;22.90;99.90;;;;;;5036818;28;20995;-77
2023/04/23 08:38:59;;;;;;;2.50;1.13;;;22.70;99.90;;;;;;5036799;28;20604;-77
2023/04/23 08:41:33;;;;;;;3.53;1.23;;;22.50;99.90;;;;;;5037102;28;20253;-77
2023/04/23 08:44:16;;;;;;;1.97;1.20;;;22.30;99.90;;;;;;5037073;28;21113;-77
2023/04/23 08:46:44;;;;;;;2.10;1.20;;;22.20;99.90;;;;;;5035562;28;20638;-77
2023/04/23 08:49:15;;;;;;;5.00;1.70;;;22.10;99.90;;;;;;5035357;28;20568;-77
2023/04/23 08:51:52;;;;;;;1.50;1.00;;;21.90;99.90;;;;;;5034980;28;20588;-77
2023/04/23 08:54:23;;;;;;;2.60;1.63;;;21.80;99.90;;;;;;5036353;28;20682;-77
2023/04/23 08:56:50;;;;;;;2.80;1.30;;;22.20;99.90;;;;;;5045145;28;20676;-77
2023/04/23 08:59:18;;;;;;;2.80;1.23;;;22.80;99.90;;;;;;5057018;28;20594;-77
2023/04/23 09:01:45;;;;;;;1.60;0.87;;;23.70;99.90;;;;;;5055204;28;20567;-77
2023/04/23 09:04:15;;;;;;;3.60;1.30;;;24.40;99.90;;;;;;5047149;28;20638;-77
2023/04/23 09:06:42;;;;;;;3.33;1.40;;;24.90;99.90;;;;;;5030844;28;20604;-77
2023/04/23 09:09:08;;;;;;;1.80;0.90;;;25.10;99.90;;;;;;5032537;28;20695;-77
2023/04/23 09:11:36;;;;;;;2.20;1.00;;;25.00;99.90;;;;;;5033116;28;20588;-77
2023/04/23 09:14:03;;;;;;;1.50;0.80;;;25.10;99.90;;;;;;5016027;28;20627;-78
2023/04/23 09:16:29;;;;;;;2.10;0.80;;;25.30;99.90;;;;;;5033357;28;20615;-78
2023/04/23 09:18:55;;;;;;;2.03;0.90;;;25.70;99.90;;;;;;5032340;28;20577;-77
2023/04/23 09:21:20;;;;;;;2.23;0.80;;;26.10;99.90;;;;;;5033024;28;20589;-77
2023/04/23 09:23:51;;;;;;;2.47;1.10;;;26.50;99.90;;;;;;5033269;28;20587;-77
2023/04/23 09:26:21;;;;;;;2.37;1.00;;;26.70;99.90;;;;;;5033134;28;20201;-77
2023/04/23 09:28:50;;;;;;;1.50;0.63;;;26.70;99.90;;;;;;5033052;28;20573;-77
2023/04/23 09:31:22;;;;;;;1.47;0.80;;;26.90;99.90;;;;;;5032188;28;20583;-76
2023/04/23 09:33:52;;;;;;;2.57;1.20;;;27.10;99.90;;;;;;5032766;28;20627;-77
2023/04/23 09:36:22;;;;;;;2.70;0.90;;;27.10;99.90;;;;;;5032996;28;20619;-77
2023/04/23 09:38:49;;;;;;;2.60;1.00;;;26.80;98.70;;;;;;5032866;28;20575;-78
2023/04/23 09:41:25;;;;;;;1.67;0.80;;;26.40;98.90;;;;;;5030290;28;20612;-78
2023/04/23 09:43:55;;;;;;;2.00;1.10;;;26.10;92.40;;;;;;5031144;28;20599;-78
2023/04/23 09:46:38;;;;;;;3.63;1.47;;;25.70;97.40;;;;;;5030684;28;20631;-77
2023/04/23 09:49:07;;;;;;;2.73;0.80;;;25.30;97.10;;;;;;5025284;28;20577;-77
2023/04/23 09:51:39;;;;;;;1.60;0.80;;;25.20;98.50;;;;;;5034801;28;20732;-77
2023/04/23 09:54:13;;;;;;;1.67;0.73;;;24.90;97.60;;;;;;5022994;28;20727;-77
2023/04/23 09:56:47;;;;;;;2.80;0.90;;;24.70;98.40;;;;;;5030993;28;20607;-77
2023/04/23 09:59:22;;;;;;;2.63;0.90;;;24.80;99.20;;;;;;5031536;28;20684;-77
2023/04/23 10:01:48;;;;;;;2.13;1.30;;;24.90;99.10;;;;;;5030787;28;20587;-78
2023/04/23 10:04:19;;;;;;;1.40;0.60;;;25.20;99.90;;;;;;5032701;28;21077;-78
2023/04/23 10:06:47;;;;;;;2.33;1.00;;;25.50;99.90;;;;;;5030616;28;20193;-79
2023/04/23 10:09:12;;;;;;;2.03;0.87;;;25.70;99.80;;;;;;5033015;28;20664;-77
2023/04/23 10:11:40;;;;;;;2.43;1.10;;;25.90;99.90;;;;;;5031851;28;20656;-78
2023/04/23 10:14:06;;;;;;;2.47;0.90;;;26.10;99.40;;;;;;5031418;28;20292;-78
2023/04/23 10:16:33;;;;;;;3.50;0.90;;;26.20;98.60;;;;;;5030711;28;20715;-78
2023/04/23 10:19:00;;;;;;;2.33;0.87;;;26.20;97.60;;;;;;5029783;28;20648;-78
2023/04/23 10:21:30;;;;;;;2.33;0.80;;;26.20;96.80;;;;;;5030924;28;20588;-79
2023/04/23 10:24:00;;;;;;;2.27;1.10;;;26.10;95.50;;;;;;5014444;28;20597;-78
2023/04/23 10:26:30;;;;;;;1.97;0.60;;;26.00;95.00;;;;;;5030812;28;20677;-77
2023/04/23 10:28:59;;;;;;;3.03;0.80;;;25.90;94.80;;;;;;5030698;28;20584;-77
2023/04/23 10:31:27;;;;;;;1.50;0.63;;;25.80;94.70;;;;;;5032168;28;20675;-78
2023/04/23 10:33:54;;;;;;;3.60;0.90;;;25.60;93.90;;;;;;5031752;28;20628;-77
2023/04/23 10:36:24;;;;;;;2.10;0.73;;;25.40;93.40;;;;;;5030159;28;20604;-78
2023/04/23 10:38:50;;;;;;;2.30;0.60;;;25.20;93.30;;;;;;5030751;28;20569;-78
2023/04/23 10:41:20;;;;;;;2.33;0.83;;;25.00;93.30;;;;;;5031434;28;20587;-78
2023/04/23 10:43:46;;;;;;;1.57;0.60;;;24.90;93.60;;;;;;5015119;28;20937;-78
2023/04/23 10:46:29;;;;;;;2.70;1.10;;;24.80;93.70;;;;;;5013070;28;20735;-78
2023/04/23 10:49:24;;;;;;;4.80;0.70;;;24.60;93.00;;;;;;5031844;28;20186;-72
2023/04/23 10:52:07;;;;;;;3.13;0.70;;;24.30;91.70;;;;;;5025677;28;20592;-72
2023/04/23 10:54:34;;;;;;;2.23;0.70;;;24.00;91.90;;;;;;5033512;28;20958;-73
2023/04/23 10:57:05;;;;;;;2.63;0.70;;;23.90;93.00;;;;;;5051202;28;20961;-72
2023/04/23 10:59:32;;;;;;;2.57;0.67;;;24.00;93.10;;;;;;5051789;28;20568;-72
2023/04/23 11:02:10;;;;;;;1.50;0.60;;;23.90;92.90;;;;;;5051031;28;20897;-73
2023/04/23 11:04:43;;;;;;;3.27;0.50;;;23.80;91.90;;;;;;5051795;28;20674;-72
2023/04/23 11:07:11;;;;;;;2.27;0.70;;;23.80;92.20;;;;;;5051044;28;20703;-72
2023/04/23 11:09:38;;;;;;;1.50;0.60;;;23.80;92.10;;;;;;5051566;28;20575;-75
2023/04/23 11:12:27;;;;;;;3.53;0.60;;;24.00;92.50;;;;;;5049981;28;21158;-75
2023/04/23 11:14:54;;;;;;;2.53;0.70;;;24.20;92.90;;;;;;5040426;28;20678;-75
2023/04/23 11:17:42;;;;;;;4.70;0.70;;;24.50;94.10;;;;;;5047958;28;20588;-75
2023/04/23 11:20:12;;;;;;;2.10;0.70;;;24.80;92.60;;;;;;5005249;28;20642;-76
2023/04/23 11:22:58;;;;;;;1.70;0.60;;;25.20;94.00;;;;;;5028990;28;22245;-76
2023/04/23 11:25:26;;;;;;;1.80;0.70;;;25.40;92.00;;;;;;5029526;28;20643;-75
2023/04/23 11:27:54;;;;;;;2.30;0.67;;;25.60;92.30;;;;;;5030501;28;20604;-76
2023/04/23 11:30:24;;;;;;;1.20;0.60;;;25.60;91.50;;;;;;5030296;28;20745;-75
2023/04/23 11:32:52;;;;;;;2.00;0.57;;;25.50;90.70;;;;;;5029677;28;20698;-75
2023/04/23 11:35:21;;;;;;;1.57;0.60;;;25.40;90.60;;;;;;5030397;28;20634;-75
2023/04/23 11:37:50;;;;;;;1.90;0.67;;;25.30;90.10;;;;;;5030584;28;20585;-75
2023/04/23 11:40:18;;;;;;;2.17;0.73;;;25.30;89.60;;;;;;5029813;28;20584;-74
2023/04/23 11:42:53;;;;;;;1.50;0.80;;;25.30;90.10;;;;;;5029239;28;20573;-74
2023/04/23 11:45:28;;;;;;;3.13;0.80;;;25.30;89.40;;;;;;5037341;28;20639;-74
2023/04/23 11:47:55;;;;;;;1.90;0.70;;;25.30;89.80;;;;;;5031593;28;20705;-74
2023/04/23 11:50:25;;;;;;;4.23;0.87;;;25.40;90.40;;;;;;5030897;28;20615;-74
2023/04/23 11:52:51;;;;;;;2.57;0.80;;;25.40;89.40;;;;;;5032407;28;20658;-76
2023/04/23 11:55:18;;;;;;;2.73;0.80;;;25.40;89.10;;;;;;5035295;28;20718;-76
2023/04/23 11:57:45;;;;;;;2.07;0.70;;;25.30;88.70;;;;;;5030443;28;20580;-75
2023/04/23 12:00:22;;;;;;;2.80;0.80;;;25.30;88.40;;;;;;5029650;28;20588;-76
2023/04/23 12:02:58;;;;;;;2.27;0.80;;;25.40;89.00;;;;;;5029508;28;20603;-76
2023/04/23 12:05:33;;;;;;;2.73;0.70;;;25.60;89.40;;;;;;5030546;28;20695;-75
2023/04/23 12:08:17;;;;;;;1.60;0.70;;;25.70;83.60;;;;;;5031017;28;20576;-76
2023/04/23 12:10:48;;;;;;;1.90;0.73;;;25.70;84.20;;;;;;5029225;28;20584;-76
2023/04/23 12:13:17;;;;;;;2.70;0.60;;;25.80;86.70;;;;;;5030565;28;20628;-76
2023/04/23 12:15:57;;;;;;;3.47;0.70;;;25.90;87.40;;;;;;5029974;28;20596;-76
2023/04/23 12:18:31;;;;;;;3.87;0.70;;;26.00;86.90;;;;;;5030985;28;20921;-75
2023/04/23 12:21:08;;;;;;;2.13;0.70;;;25.90;70.00;;;;;;5028720;28;20770;-74
2023/04/23 12:23:35;;;;;;;4.60;0.70;;;25.70;77.10;;;;;;5030817;28;20575;-76
2023/04/23 12:26:04;;;;;;;1.77;0.60;;;25.50;77.60;;;;;;5030030;28;20699;-75
2023/04/23 12:28:30;;;;;;;1.70;0.70;;;25.30;78.50;;;;;;5029418;28;20639;-75
2023/04/23 12:31:01;;;;;;;2.50;0.63;;;25.00;73.50;;;;;;5030793;28;20572;-75
2023/04/23 12:33:30;;;;;;;1.70;0.90;;;24.80;75.00;;;;;;5031078;28;20202;-75
2023/04/23 12:35:56;;;;;;;2.07;0.60;;;24.60;76.00;;;;;;5030947;28;20605;-75
2023/04/23 12:38:26;;;;;;;2.40;0.70;;;24.50;76.10;;;;;;5031248;28;20924;-75
2023/04/23 12:40:53;;;;;;;6.70;1.27;;;24.40;76.10;;;;;;5037603;28;20610;-75